sensor_id;sensor_type;location;lat;lon;timestamp;temperature;humidity
83553;DHT22;73510;50.866;5.420;2023-10-31T00:00:23;12.30;72.70
83553;DHT22;73510;50.866;5.420;2023-10-31T00:02:48;12.30;72.70
83553;DHT22;73510;50.866;5.420;2023-10-31T00:05:16;12.30;72.60
83553;DHT22;73510;50.866;5.420;2023-10-31T00:07:41;12.30;72.90
83553;DHT22;73510;50.866;5.420;2023-10-31T00:10:07;12.30;72.80
83553;DHT22;73510;50.866;5.420;2023-10-31T00:12:34;12.20;72.80
83553;DHT22;73510;50.866;5.420;2023-10-31T00:15:00;12.30;72.90
83553;DHT22;73510;50.866;5.420;2023-10-31T00:17:25;12.30;72.80
83553;DHT22;73510;50.866;5.420;2023-10-31T00:19:51;12.30;72.60
83553;DHT22;73510;50.866;5.420;2023-10-31T00:22:17;12.30;73.00
83553;DHT22;73510;50.866;5.420;2023-10-31T00:24:43;12.20;73.00
83553;DHT22;73510;50.866;5.420;2023-10-31T00:27:09;12.20;73.20
83553;DHT22;73510;50.866;5.420;2023-10-31T00:29:35;12.20;73.20
83553;DHT22;73510;50.866;5.420;2023-10-31T00:32:01;12.20;73.00
83553;DHT22;73510;50.866;5.420;2023-10-31T00:34:27;12.30;72.60
83553;DHT22;73510;50.866;5.420;2023-10-31T00:36:52;12.20;72.60
83553;DHT22;73510;50.866;5.420;2023-10-31T00:39:18;12.20;72.40
83553;DHT22;73510;50.866;5.420;2023-10-31T00:41:44;12.10;72.40
83553;DHT22;73510;50.866;5.420;2023-10-31T00:44:12;12.00;72.60
83553;DHT22;73510;50.866;5.420;2023-10-31T00:46:38;12.00;72.70
83553;DHT22;73510;50.866;5.420;2023-10-31T00:49:03;12.00;72.60
83553;DHT22;73510;50.866;5.420;2023-10-31T00:51:29;11.90;72.70
83553;DHT22;73510;50.866;5.420;2023-10-31T00:53:55;11.90;73.00
83553;DHT22;73510;50.866;5.420;2023-10-31T00:56:20;12.00;72.90
83553;DHT22;73510;50.866;5.420;2023-10-31T00:58:46;11.90;73.30
83553;DHT22;73510;50.866;5.420;2023-10-31T01:01:12;11.90;73.30
83553;DHT22;73510;50.866;5.420;2023-10-31T01:03:37;12.00;73.30
83553;DHT22;73510;50.866;5.420;2023-10-31T01:06:03;12.00;73.10
83553;DHT22;73510;50.866;5.420;2023-10-31T01:08:30;12.00;73.10
83553;DHT22;73510;50.866;5.420;2023-10-31T01:10:55;12.00;73.10
83553;DHT22;73510;50.866;5.420;2023-10-31T01:13:21;12.00;73.30
83553;DHT22;73510;50.866;5.420;2023-10-31T01:15:47;12.00;73.20
83553;DHT22;73510;50.866;5.420;2023-10-31T01:18:13;12.00;73.00
83553;DHT22;73510;50.866;5.420;2023-10-31T01:20:38;12.10;73.20
83553;DHT22;73510;50.866;5.420;2023-10-31T01:23:04;12.10;73.30
83553;DHT22;73510;50.866;5.420;2023-10-31T01:25:31;12.00;73.10
83553;DHT22;73510;50.866;5.420;2023-10-31T01:27:56;12.00;73.20
83553;DHT22;73510;50.866;5.420;2023-10-31T01:30:22;12.00;73.10
83553;DHT22;73510;50.866;5.420;2023-10-31T01:32:48;12.10;73.00
83553;DHT22;73510;50.866;5.420;2023-10-31T01:35:13;12.10;73.00
83553;DHT22;73510;50.866;5.420;2023-10-31T01:37:39;12.10;73.10
83553;DHT22;73510;50.866;5.420;2023-10-31T01:40:05;12.10;73.10
83553;DHT22;73510;50.866;5.420;2023-10-31T01:42:32;12.10;72.90
83553;DHT22;73510;50.866;5.420;2023-10-31T01:44:58;12.10;72.80
83553;DHT22;73510;50.866;5.420;2023-10-31T01:47:24;12.10;73.00
83553;DHT22;73510;50.866;5.420;2023-10-31T01:49:51;12.10;72.90
83553;DHT22;73510;50.866;5.420;2023-10-31T01:52:17;12.10;73.10
83553;DHT22;73510;50.866;5.420;2023-10-31T01:54:44;12.10;73.10
83553;DHT22;73510;50.866;5.420;2023-10-31T01:57:10;12.10;73.00
83553;DHT22;73510;50.866;5.420;2023-10-31T01:59:36;12.10;73.00
83553;DHT22;73510;50.866;5.420;2023-10-31T02:02:03;12.10;73.00
83553;DHT22;73510;50.866;5.420;2023-10-31T02:04:31;12.10;73.00
83553;DHT22;73510;50.866;5.420;2023-10-31T02:06:56;12.10;73.10
83553;DHT22;73510;50.866;5.420;2023-10-31T02:09:22;12.10;72.90
83553;DHT22;73510;50.866;5.420;2023-10-31T02:11:52;12.10;72.60
83553;DHT22;73510;50.866;5.420;2023-10-31T02:14:18;12.10;73.10
83553;DHT22;73510;50.866;5.420;2023-10-31T02:16:44;12.10;73.20
83553;DHT22;73510;50.866;5.420;2023-10-31T02:19:11;12.10;73.10
83553;DHT22;73510;50.866;5.420;2023-10-31T02:21:40;12.10;73.10
83553;DHT22;73510;50.866;5.420;2023-10-31T02:24:06;12.10;73.10
83553;DHT22;73510;50.866;5.420;2023-10-31T02:26:33;12.20;73.00
83553;DHT22;73510;50.866;5.420;2023-10-31T02:29:00;12.20;73.20
83553;DHT22;73510;50.866;5.420;2023-10-31T02:31:27;12.20;73.00
83553;DHT22;73510;50.866;5.420;2023-10-31T02:33:52;12.20;73.00
83553;DHT22;73510;50.866;5.420;2023-10-31T02:36:19;12.20;72.90
83553;DHT22;73510;50.866;5.420;2023-10-31T02:38:45;12.20;73.00
83553;DHT22;73510;50.866;5.420;2023-10-31T02:41:11;12.20;72.70
83553;DHT22;73510;50.866;5.420;2023-10-31T02:43:38;12.30;72.80
83553;DHT22;73510;50.866;5.420;2023-10-31T02:46:04;12.20;72.70
83553;DHT22;73510;50.866;5.420;2023-10-31T02:48:30;12.20;72.80
83553;DHT22;73510;50.866;5.420;2023-10-31T02:51:04;12.20;72.80
83553;DHT22;73510;50.866;5.420;2023-10-31T02:53:30;12.20;72.80
83553;DHT22;73510;50.866;5.420;2023-10-31T02:55:55;12.20;72.80
83553;DHT22;73510;50.866;5.420;2023-10-31T02:58:21;12.20;72.70
83553;DHT22;73510;50.866;5.420;2023-10-31T03:00:47;12.20;72.80
83553;DHT22;73510;50.866;5.420;2023-10-31T03:03:13;12.20;72.60
83553;DHT22;73510;50.866;5.420;2023-10-31T03:05:39;12.20;72.80
83553;DHT22;73510;50.866;5.420;2023-10-31T03:08:05;12.20;72.90
83553;DHT22;73510;50.866;5.420;2023-10-31T03:10:32;12.20;72.90
83553;DHT22;73510;50.866;5.420;2023-10-31T03:12:58;12.10;72.50
83553;DHT22;73510;50.866;5.420;2023-10-31T03:15:24;12.10;72.50
83553;DHT22;73510;50.866;5.420;2023-10-31T03:17:50;12.10;72.60
83553;DHT22;73510;50.866;5.420;2023-10-31T03:20:16;12.00;72.50
83553;DHT22;73510;50.866;5.420;2023-10-31T03:22:41;12.00;72.50
83553;DHT22;73510;50.866;5.420;2023-10-31T03:25:08;11.90;72.50
83553;DHT22;73510;50.866;5.420;2023-10-31T03:27:33;11.90;72.60
83553;DHT22;73510;50.866;5.420;2023-10-31T03:29:59;11.90;72.90
83553;DHT22;73510;50.866;5.420;2023-10-31T03:32:25;11.90;72.80
83553;DHT22;73510;50.866;5.420;2023-10-31T03:34:50;11.90;72.70
83553;DHT22;73510;50.866;5.420;2023-10-31T03:37:16;11.90;72.70
83553;DHT22;73510;50.866;5.420;2023-10-31T03:39:42;11.90;72.70
83553;DHT22;73510;50.866;5.420;2023-10-31T03:42:08;11.90;72.60
83553;DHT22;73510;50.866;5.420;2023-10-31T03:44:33;11.90;72.80
83553;DHT22;73510;50.866;5.420;2023-10-31T03:46:59;11.90;72.90
83553;DHT22;73510;50.866;5.420;2023-10-31T03:49:24;11.90;73.00
83553;DHT22;73510;50.866;5.420;2023-10-31T03:51:50;11.90;72.80
83553;DHT22;73510;50.866;5.420;2023-10-31T03:54:17;11.90;72.90
83553;DHT22;73510;50.866;5.420;2023-10-31T03:56:43;11.90;72.80
83553;DHT22;73510;50.866;5.420;2023-10-31T03:59:09;12.00;72.60
83553;DHT22;73510;50.866;5.420;2023-10-31T04:01:35;12.00;72.50
83553;DHT22;73510;50.866;5.420;2023-10-31T04:04:01;12.00;72.40
83553;DHT22;73510;50.866;5.420;2023-10-31T04:06:27;12.00;72.30
83553;DHT22;73510;50.866;5.420;2023-10-31T04:08:52;12.00;72.30
83553;DHT22;73510;50.866;5.420;2023-10-31T04:11:18;12.00;72.20
83553;DHT22;73510;50.866;5.420;2023-10-31T04:13:44;12.00;72.10
83553;DHT22;73510;50.866;5.420;2023-10-31T04:16:09;12.00;72.00
83553;DHT22;73510;50.866;5.420;2023-10-31T04:18:36;12.00;72.10
83553;DHT22;73510;50.866;5.420;2023-10-31T04:21:01;12.00;72.20
83553;DHT22;73510;50.866;5.420;2023-10-31T04:23:27;12.00;72.20
83553;DHT22;73510;50.866;5.420;2023-10-31T04:25:53;12.00;72.10
83553;DHT22;73510;50.866;5.420;2023-10-31T04:28:19;12.00;72.10
83553;DHT22;73510;50.866;5.420;2023-10-31T04:30:45;11.90;71.80
83553;DHT22;73510;50.866;5.420;2023-10-31T04:33:11;12.00;71.90
83553;DHT22;73510;50.866;5.420;2023-10-31T04:35:36;12.00;71.90
83553;DHT22;73510;50.866;5.420;2023-10-31T04:38:02;12.00;71.70
83553;DHT22;73510;50.866;5.420;2023-10-31T04:40:28;12.00;71.30
83553;DHT22;73510;50.866;5.420;2023-10-31T04:42:54;12.00;71.40
83553;DHT22;73510;50.866;5.420;2023-10-31T04:45:21;12.00;71.40
83553;DHT22;73510;50.866;5.420;2023-10-31T04:47:47;12.00;71.40
83553;DHT22;73510;50.866;5.420;2023-10-31T04:50:13;12.00;71.50
83553;DHT22;73510;50.866;5.420;2023-10-31T04:52:38;11.90;71.50
83553;DHT22;73510;50.866;5.420;2023-10-31T04:55:05;11.90;71.60
83553;DHT22;73510;50.866;5.420;2023-10-31T04:57:31;11.90;71.70
83553;DHT22;73510;50.866;5.420;2023-10-31T04:59:56;11.90;71.80
83553;DHT22;73510;50.866;5.420;2023-10-31T05:02:23;11.80;71.60
83553;DHT22;73510;50.866;5.420;2023-10-31T05:04:49;11.80;71.40
83553;DHT22;73510;50.866;5.420;2023-10-31T05:07:17;11.70;71.40
83553;DHT22;73510;50.866;5.420;2023-10-31T05:09:43;11.70;71.40
83553;DHT22;73510;50.866;5.420;2023-10-31T05:12:08;11.60;71.50
83553;DHT22;73510;50.866;5.420;2023-10-31T05:14:35;11.60;71.50
83553;DHT22;73510;50.866;5.420;2023-10-31T05:17:01;11.50;71.60
83553;DHT22;73510;50.866;5.420;2023-10-31T05:19:26;11.50;71.70
83553;DHT22;73510;50.866;5.420;2023-10-31T05:21:52;11.50;71.80
83553;DHT22;73510;50.866;5.420;2023-10-31T05:24:18;11.40;71.90
83553;DHT22;73510;50.866;5.420;2023-10-31T05:26:44;11.40;71.80
83553;DHT22;73510;50.866;5.420;2023-10-31T05:29:11;11.30;72.00
83553;DHT22;73510;50.866;5.420;2023-10-31T05:31:36;11.20;72.10
83553;DHT22;73510;50.866;5.420;2023-10-31T05:34:02;11.10;72.50
83553;DHT22;73510;50.866;5.420;2023-10-31T05:36:32;11.10;72.60
83553;DHT22;73510;50.866;5.420;2023-10-31T05:38:58;11.20;72.40
83553;DHT22;73510;50.866;5.420;2023-10-31T05:41:23;11.20;72.60
83553;DHT22;73510;50.866;5.420;2023-10-31T05:43:49;11.20;72.40
83553;DHT22;73510;50.866;5.420;2023-10-31T05:46:15;11.10;72.50
83553;DHT22;73510;50.866;5.420;2023-10-31T05:48:44;11.10;72.60
83553;DHT22;73510;50.866;5.420;2023-10-31T05:51:17;11.10;72.70
83553;DHT22;73510;50.866;5.420;2023-10-31T05:53:45;11.10;72.70
83553;DHT22;73510;50.866;5.420;2023-10-31T05:56:13;11.10;72.70
83553;DHT22;73510;50.866;5.420;2023-10-31T05:58:39;11.00;72.80
83553;DHT22;73510;50.866;5.420;2023-10-31T06:01:05;11.00;72.70
83553;DHT22;73510;50.866;5.420;2023-10-31T06:03:32;11.00;72.80
83553;DHT22;73510;50.866;5.420;2023-10-31T06:05:58;11.00;72.80
83553;DHT22;73510;50.866;5.420;2023-10-31T06:08:23;10.90;72.80
83553;DHT22;73510;50.866;5.420;2023-10-31T06:10:59;10.90;72.80
83553;DHT22;73510;50.866;5.420;2023-10-31T06:13:25;10.90;73.00
83553;DHT22;73510;50.866;5.420;2023-10-31T06:15:53;10.80;73.20
83553;DHT22;73510;50.866;5.420;2023-10-31T06:18:19;10.80;73.30
83553;DHT22;73510;50.866;5.420;2023-10-31T06:20:45;10.80;73.20
83553;DHT22;73510;50.866;5.420;2023-10-31T06:23:11;10.80;73.20
83553;DHT22;73510;50.866;5.420;2023-10-31T06:25:36;10.80;73.20
83553;DHT22;73510;50.866;5.420;2023-10-31T06:28:03;10.70;73.20
83553;DHT22;73510;50.866;5.420;2023-10-31T06:30:28;10.70;73.40
83553;DHT22;73510;50.866;5.420;2023-10-31T06:32:54;10.80;73.30
83553;DHT22;73510;50.866;5.420;2023-10-31T06:35:22;10.80;73.40
83553;DHT22;73510;50.866;5.420;2023-10-31T06:37:50;10.80;73.50
83553;DHT22;73510;50.866;5.420;2023-10-31T06:40:15;10.80;73.50
83553;DHT22;73510;50.866;5.420;2023-10-31T06:42:41;10.80;73.50
83553;DHT22;73510;50.866;5.420;2023-10-31T06:45:08;10.80;73.40
83553;DHT22;73510;50.866;5.420;2023-10-31T06:47:33;10.80;73.50
83553;DHT22;73510;50.866;5.420;2023-10-31T06:49:59;10.80;73.60
83553;DHT22;73510;50.866;5.420;2023-10-31T06:52:25;10.80;73.40
83553;DHT22;73510;50.866;5.420;2023-10-31T06:54:50;10.80;73.50
83553;DHT22;73510;50.866;5.420;2023-10-31T06:57:16;10.80;73.30
83553;DHT22;73510;50.866;5.420;2023-10-31T06:59:42;10.90;73.30
83553;DHT22;73510;50.866;5.420;2023-10-31T07:02:07;10.90;73.20
83553;DHT22;73510;50.866;5.420;2023-10-31T07:04:34;10.90;73.20
83553;DHT22;73510;50.866;5.420;2023-10-31T07:07:00;11.00;73.10
83553;DHT22;73510;50.866;5.420;2023-10-31T07:09:26;11.00;73.00
83553;DHT22;73510;50.866;5.420;2023-10-31T07:11:52;11.00;73.00
83553;DHT22;73510;50.866;5.420;2023-10-31T07:14:18;11.10;72.90
83553;DHT22;73510;50.866;5.420;2023-10-31T07:16:44;11.10;72.90
83553;DHT22;73510;50.866;5.420;2023-10-31T07:19:10;11.20;72.80
83553;DHT22;73510;50.866;5.420;2023-10-31T07:21:36;11.20;72.70
83553;DHT22;73510;50.866;5.420;2023-10-31T07:24:02;11.30;72.50
83553;DHT22;73510;50.866;5.420;2023-10-31T07:26:29;11.30;72.20
83553;DHT22;73510;50.866;5.420;2023-10-31T07:28:54;11.40;72.10
83553;DHT22;73510;50.866;5.420;2023-10-31T07:31:20;11.90;71.50
83553;DHT22;73510;50.866;5.420;2023-10-31T07:33:46;13.30;68.70
83553;DHT22;73510;50.866;5.420;2023-10-31T07:36:12;14.30;65.80
83553;DHT22;73510;50.866;5.420;2023-10-31T07:38:38;14.10;65.70
83553;DHT22;73510;50.866;5.420;2023-10-31T07:41:04;13.70;66.50
83553;DHT22;73510;50.866;5.420;2023-10-31T07:43:29;13.70;66.90
83553;DHT22;73510;50.866;5.420;2023-10-31T07:45:55;14.40;65.80
83553;DHT22;73510;50.866;5.420;2023-10-31T07:48:21;15.70;63.50
83553;DHT22;73510;50.866;5.420;2023-10-31T07:50:47;16.90;60.70
83553;DHT22;73510;50.866;5.420;2023-10-31T07:53:13;18.00;59.00
83553;DHT22;73510;50.866;5.420;2023-10-31T07:55:39;18.80;57.50
83553;DHT22;73510;50.866;5.420;2023-10-31T07:58:04;19.50;56.00
83553;DHT22;73510;50.866;5.420;2023-10-31T08:00:30;20.00;55.10
83553;DHT22;73510;50.866;5.420;2023-10-31T08:02:56;20.50;55.20
83553;DHT22;73510;50.866;5.420;2023-10-31T08:05:22;20.90;53.20
83553;DHT22;73510;50.866;5.420;2023-10-31T08:07:47;21.00;53.70
83553;DHT22;73510;50.866;5.420;2023-10-31T08:10:13;21.30;53.30
83553;DHT22;73510;50.866;5.420;2023-10-31T08:12:39;21.10;53.40
83553;DHT22;73510;50.866;5.420;2023-10-31T08:15:05;21.40;52.80
83553;DHT22;73510;50.866;5.420;2023-10-31T08:17:31;21.70;52.80
83553;DHT22;73510;50.866;5.420;2023-10-31T08:19:56;22.10;52.50
83553;DHT22;73510;50.866;5.420;2023-10-31T08:22:22;22.70;50.70
83553;DHT22;73510;50.866;5.420;2023-10-31T08:24:48;23.00;51.20
83553;DHT22;73510;50.866;5.420;2023-10-31T08:27:14;23.40;50.50
83553;DHT22;73510;50.866;5.420;2023-10-31T08:29:39;23.60;50.00
83553;DHT22;73510;50.866;5.420;2023-10-31T08:32:05;23.50;50.40
83553;DHT22;73510;50.866;5.420;2023-10-31T08:34:31;23.20;50.10
83553;DHT22;73510;50.866;5.420;2023-10-31T08:36:57;23.30;50.30
83553;DHT22;73510;50.866;5.420;2023-10-31T08:39:24;23.60;49.20
83553;DHT22;73510;50.866;5.420;2023-10-31T08:41:51;22.90;49.80
83553;DHT22;73510;50.866;5.420;2023-10-31T08:44:17;22.30;50.50
83553;DHT22;73510;50.866;5.420;2023-10-31T08:46:43;22.30;50.90
83553;DHT22;73510;50.866;5.420;2023-10-31T08:49:09;22.20;51.10
83553;DHT22;73510;50.866;5.420;2023-10-31T08:51:34;21.60;51.90
83553;DHT22;73510;50.866;5.420;2023-10-31T08:54:00;21.20;52.90
83553;DHT22;73510;50.866;5.420;2023-10-31T08:56:26;20.80;53.50
83553;DHT22;73510;50.866;5.420;2023-10-31T08:58:53;20.50;53.70
83553;DHT22;73510;50.866;5.420;2023-10-31T09:01:19;20.00;54.80
83553;DHT22;73510;50.866;5.420;2023-10-31T09:03:45;19.50;55.20
83553;DHT22;73510;50.866;5.420;2023-10-31T09:06:10;19.20;56.00
83553;DHT22;73510;50.866;5.420;2023-10-31T09:08:37;19.20;56.20
83553;DHT22;73510;50.866;5.420;2023-10-31T09:11:05;19.00;55.60
83553;DHT22;73510;50.866;5.420;2023-10-31T09:13:31;18.90;56.70
83553;DHT22;73510;50.866;5.420;2023-10-31T09:16:00;18.80;56.60
83553;DHT22;73510;50.866;5.420;2023-10-31T09:18:26;18.60;56.70
83553;DHT22;73510;50.866;5.420;2023-10-31T09:20:52;18.50;57.10
83553;DHT22;73510;50.866;5.420;2023-10-31T09:23:18;18.60;57.30
83553;DHT22;73510;50.866;5.420;2023-10-31T09:25:44;19.40;56.20
83553;DHT22;73510;50.866;5.420;2023-10-31T09:28:10;19.50;56.00
83553;DHT22;73510;50.866;5.420;2023-10-31T09:30:35;18.90;55.80
83553;DHT22;73510;50.866;5.420;2023-10-31T09:33:01;18.60;57.00
83553;DHT22;73510;50.866;5.420;2023-10-31T09:35:27;18.40;57.50
83553;DHT22;73510;50.866;5.420;2023-10-31T09:37:54;18.20;57.90
83553;DHT22;73510;50.866;5.420;2023-10-31T09:40:20;18.20;59.10
83553;DHT22;73510;50.866;5.420;2023-10-31T09:42:47;18.20;58.70
83553;DHT22;73510;50.866;5.420;2023-10-31T09:45:13;18.30;58.20
83553;DHT22;73510;50.866;5.420;2023-10-31T09:47:39;18.30;57.50
83553;DHT22;73510;50.866;5.420;2023-10-31T09:50:06;18.10;58.70
83553;DHT22;73510;50.866;5.420;2023-10-31T09:52:34;18.00;58.00
83553;DHT22;73510;50.866;5.420;2023-10-31T09:55:01;18.00;58.00
83553;DHT22;73510;50.866;5.420;2023-10-31T09:57:27;17.90;58.50
83553;DHT22;73510;50.866;5.420;2023-10-31T09:59:52;17.80;58.40
83553;DHT22;73510;50.866;5.420;2023-10-31T10:02:18;17.70;59.10
83553;DHT22;73510;50.866;5.420;2023-10-31T10:04:44;17.60;58.90
83553;DHT22;73510;50.866;5.420;2023-10-31T10:07:17;17.50;59.00
83553;DHT22;73510;50.866;5.420;2023-10-31T10:09:44;17.40;59.00
83553;DHT22;73510;50.866;5.420;2023-10-31T10:12:13;17.30;59.20
83553;DHT22;73510;50.866;5.420;2023-10-31T10:14:39;17.20;59.20
83553;DHT22;73510;50.866;5.420;2023-10-31T10:17:24;17.10;59.70
83553;DHT22;73510;50.866;5.420;2023-10-31T10:20:22;17.00;59.90
83553;DHT22;73510;50.866;5.420;2023-10-31T10:22:48;17.00;59.70
83553;DHT22;73510;50.866;5.420;2023-10-31T10:25:17;16.90;60.20
83553;DHT22;73510;50.866;5.420;2023-10-31T10:27:47;16.90;60.10
83553;DHT22;73510;50.866;5.420;2023-10-31T10:30:14;17.00;60.00
83553;DHT22;73510;50.866;5.420;2023-10-31T10:32:40;17.10;59.60
83553;DHT22;73510;50.866;5.420;2023-10-31T10:35:07;17.20;59.00
83553;DHT22;73510;50.866;5.420;2023-10-31T10:37:36;17.20;60.30
83553;DHT22;73510;50.866;5.420;2023-10-31T10:40:05;17.20;59.30
83553;DHT22;73510;50.866;5.420;2023-10-31T10:42:33;17.30;58.90
83553;DHT22;73510;50.866;5.420;2023-10-31T10:45:03;17.20;59.40
83553;DHT22;73510;50.866;5.420;2023-10-31T10:47:33;17.30;59.40
83553;DHT22;73510;50.866;5.420;2023-10-31T10:50:01;17.40;59.30
83553;DHT22;73510;50.866;5.420;2023-10-31T10:55:26;17.40;59.80
83553;DHT22;73510;50.866;5.420;2023-10-31T10:57:54;17.50;59.20
83553;DHT22;73510;50.866;5.420;2023-10-31T11:00:22;17.50;59.50
83553;DHT22;73510;50.866;5.420;2023-10-31T11:02:52;17.50;59.40
83553;DHT22;73510;50.866;5.420;2023-10-31T11:05:19;17.50;59.70
83553;DHT22;73510;50.866;5.420;2023-10-31T11:07:45;17.50;59.20
83553;DHT22;73510;50.866;5.420;2023-10-31T11:10:11;17.50;59.30
83553;DHT22;73510;50.866;5.420;2023-10-31T11:12:38;17.60;59.00
83553;DHT22;73510;50.866;5.420;2023-10-31T11:15:08;17.60;58.60
83553;DHT22;73510;50.866;5.420;2023-10-31T11:17:37;17.50;59.70
83553;DHT22;73510;50.866;5.420;2023-10-31T11:20:04;17.50;59.40
83553;DHT22;73510;50.866;5.420;2023-10-31T11:22:45;17.50;59.50
83553;DHT22;73510;50.866;5.420;2023-10-31T11:25:18;17.60;59.40
83553;DHT22;73510;50.866;5.420;2023-10-31T11:27:52;17.50;58.60
83553;DHT22;73510;50.866;5.420;2023-10-31T11:32:57;17.50;58.60
83553;DHT22;73510;50.866;5.420;2023-10-31T11:35:24;17.50;59.00
83553;DHT22;73510;50.866;5.420;2023-10-31T11:38:01;17.50;59.30
83553;DHT22;73510;50.866;5.420;2023-10-31T11:40:29;17.50;59.20
83553;DHT22;73510;50.866;5.420;2023-10-31T11:42:58;17.50;59.00
83553;DHT22;73510;50.866;5.420;2023-10-31T11:45:40;17.50;58.60
83553;DHT22;73510;50.866;5.420;2023-10-31T11:48:10;17.50;59.20
83553;DHT22;73510;50.866;5.420;2023-10-31T11:50:37;17.50;58.90
83553;DHT22;73510;50.866;5.420;2023-10-31T11:53:10;17.50;58.60
83553;DHT22;73510;50.866;5.420;2023-10-31T11:55:46;17.30;58.60
83553;DHT22;73510;50.866;5.420;2023-10-31T11:58:19;17.20;58.90
83553;DHT22;73510;50.866;5.420;2023-10-31T12:00:49;17.10;59.10
83553;DHT22;73510;50.866;5.420;2023-10-31T12:03:19;17.00;59.10
83553;DHT22;73510;50.866;5.420;2023-10-31T12:05:58;17.00;59.70
83553;DHT22;73510;50.866;5.420;2023-10-31T12:11:03;16.90;59.80
83553;DHT22;73510;50.866;5.420;2023-10-31T12:13:29;17.00;60.30
83553;DHT22;73510;50.866;5.420;2023-10-31T12:15:55;17.00;59.90
83553;DHT22;73510;50.866;5.420;2023-10-31T12:18:20;17.20;60.10
83553;DHT22;73510;50.866;5.420;2023-10-31T12:20:50;17.20;60.00
83553;DHT22;73510;50.866;5.420;2023-10-31T12:23:17;17.30;60.50
83553;DHT22;73510;50.866;5.420;2023-10-31T12:25:50;17.20;60.40
83553;DHT22;73510;50.866;5.420;2023-10-31T12:28:17;17.20;60.60
83553;DHT22;73510;50.866;5.420;2023-10-31T12:30:52;17.20;60.50
83553;DHT22;73510;50.866;5.420;2023-10-31T12:33:22;17.30;60.70
83553;DHT22;73510;50.866;5.420;2023-10-31T12:35:56;17.40;60.50
83553;DHT22;73510;50.866;5.420;2023-10-31T12:38:23;17.30;60.70
83553;DHT22;73510;50.866;5.420;2023-10-31T12:40:49;17.30;60.20
83553;DHT22;73510;50.866;5.420;2023-10-31T12:43:16;17.30;60.70
83553;DHT22;73510;50.866;5.420;2023-10-31T12:45:43;17.20;60.90
83553;DHT22;73510;50.866;5.420;2023-10-31T12:48:10;17.20;61.20
83553;DHT22;73510;50.866;5.420;2023-10-31T12:50:38;17.10;60.50
83553;DHT22;73510;50.866;5.420;2023-10-31T12:53:06;17.00;61.20
83553;DHT22;73510;50.866;5.420;2023-10-31T12:55:38;16.90;61.50
83553;DHT22;73510;50.866;5.420;2023-10-31T12:58:05;16.80;61.10
83553;DHT22;73510;50.866;5.420;2023-10-31T13:00:32;16.70;61.20
83553;DHT22;73510;50.866;5.420;2023-10-31T13:03:06;16.70;61.60
83553;DHT22;73510;50.866;5.420;2023-10-31T13:05:34;16.60;61.50
83553;DHT22;73510;50.866;5.420;2023-10-31T13:08:01;16.50;62.10
83553;DHT22;73510;50.866;5.420;2023-10-31T13:10:30;16.50;61.80
83553;DHT22;73510;50.866;5.420;2023-10-31T13:12:56;16.40;62.10
83553;DHT22;73510;50.866;5.420;2023-10-31T13:15:23;16.40;61.90
83553;DHT22;73510;50.866;5.420;2023-10-31T13:17:50;16.40;62.00
83553;DHT22;73510;50.866;5.420;2023-10-31T13:20:18;16.40;61.60
83553;DHT22;73510;50.866;5.420;2023-10-31T13:22:45;16.40;61.80
83553;DHT22;73510;50.866;5.420;2023-10-31T13:25:12;16.40;61.80
83553;DHT22;73510;50.866;5.420;2023-10-31T13:27:42;16.40;62.10
83553;DHT22;73510;50.866;5.420;2023-10-31T13:30:12;16.40;62.70
83553;DHT22;73510;50.866;5.420;2023-10-31T13:32:39;16.30;62.40
83553;DHT22;73510;50.866;5.420;2023-10-31T13:35:06;16.20;62.70
83553;DHT22;73510;50.866;5.420;2023-10-31T13:37:35;16.10;62.50
83553;DHT22;73510;50.866;5.420;2023-10-31T13:40:01;16.00;63.20
83553;DHT22;73510;50.866;5.420;2023-10-31T13:42:26;16.00;63.30
83553;DHT22;73510;50.866;5.420;2023-10-31T13:44:53;15.90;63.20
83553;DHT22;73510;50.866;5.420;2023-10-31T13:47:19;15.90;62.90
83553;DHT22;73510;50.866;5.420;2023-10-31T13:49:45;16.00;63.30
83553;DHT22;73510;50.866;5.420;2023-10-31T13:52:11;16.00;63.40
83553;DHT22;73510;50.866;5.420;2023-10-31T13:54:37;15.90;63.90
83553;DHT22;73510;50.866;5.420;2023-10-31T13:57:03;15.90;64.20
83553;DHT22;73510;50.866;5.420;2023-10-31T13:59:29;15.80;64.30
83553;DHT22;73510;50.866;5.420;2023-10-31T14:01:55;15.70;64.30
83553;DHT22;73510;50.866;5.420;2023-10-31T14:04:20;15.60;64.80
83553;DHT22;73510;50.866;5.420;2023-10-31T14:06:47;15.60;65.00
83553;DHT22;73510;50.866;5.420;2023-10-31T14:09:13;15.60;65.40
83553;DHT22;73510;50.866;5.420;2023-10-31T14:11:39;15.50;66.00
83553;DHT22;73510;50.866;5.420;2023-10-31T14:14:06;15.40;66.70
83553;DHT22;73510;50.866;5.420;2023-10-31T14:16:33;15.30;67.20
83553;DHT22;73510;50.866;5.420;2023-10-31T14:18:59;15.30;67.00
83553;DHT22;73510;50.866;5.420;2023-10-31T14:21:25;15.20;66.60
83553;DHT22;73510;50.866;5.420;2023-10-31T14:23:51;15.20;67.20
83553;DHT22;73510;50.866;5.420;2023-10-31T14:26:23;15.10;67.40
83553;DHT22;73510;50.866;5.420;2023-10-31T14:28:49;15.10;67.50
83553;DHT22;73510;50.866;5.420;2023-10-31T14:31:16;15.10;67.20
83553;DHT22;73510;50.866;5.420;2023-10-31T14:33:43;15.10;67.50
83553;DHT22;73510;50.866;5.420;2023-10-31T14:36:09;15.00;67.50
83553;DHT22;73510;50.866;5.420;2023-10-31T14:38:37;15.00;67.60
83553;DHT22;73510;50.866;5.420;2023-10-31T14:41:03;15.00;67.40
83553;DHT22;73510;50.866;5.420;2023-10-31T14:43:29;14.90;68.00
83553;DHT22;73510;50.866;5.420;2023-10-31T14:45:56;14.90;68.00
83553;DHT22;73510;50.866;5.420;2023-10-31T14:48:22;14.90;67.90
83553;DHT22;73510;50.866;5.420;2023-10-31T14:50:48;14.90;67.90
83553;DHT22;73510;50.866;5.420;2023-10-31T14:53:14;14.90;67.60
83553;DHT22;73510;50.866;5.420;2023-10-31T14:55:40;15.00;67.80
83553;DHT22;73510;50.866;5.420;2023-10-31T14:58:06;15.00;68.00
83553;DHT22;73510;50.866;5.420;2023-10-31T15:00:34;14.90;68.10
83553;DHT22;73510;50.866;5.420;2023-10-31T15:02:59;14.90;67.50
83553;DHT22;73510;50.866;5.420;2023-10-31T15:05:25;15.00;67.70
83553;DHT22;73510;50.866;5.420;2023-10-31T15:07:51;15.00;68.70
83553;DHT22;73510;50.866;5.420;2023-10-31T15:10:18;15.00;68.10
83553;DHT22;73510;50.866;5.420;2023-10-31T15:12:46;15.00;68.00
83553;DHT22;73510;50.866;5.420;2023-10-31T15:15:14;15.00;68.20
83553;DHT22;73510;50.866;5.420;2023-10-31T15:17:40;15.00;68.20
83553;DHT22;73510;50.866;5.420;2023-10-31T15:20:06;15.00;68.10
83553;DHT22;73510;50.866;5.420;2023-10-31T15:22:32;15.00;68.50
83553;DHT22;73510;50.866;5.420;2023-10-31T15:24:58;15.00;68.60
83553;DHT22;73510;50.866;5.420;2023-10-31T15:27:23;15.00;68.00
83553;DHT22;73510;50.866;5.420;2023-10-31T15:29:49;15.00;68.10
83553;DHT22;73510;50.866;5.420;2023-10-31T15:32:15;15.00;68.30
83553;DHT22;73510;50.866;5.420;2023-10-31T15:34:41;14.90;68.30